sensor_id;sensor_type;location;lat;lon;timestamp;pressure;altitude;pressure_sealevel;temperature;humidity
20013;BME280;10167;42.852;23.042;2023-04-16T00:00:09;94371.25;;;8.35;100.00
20013;BME280;10167;42.852;23.042;2023-04-16T00:02:39;94373.97;;;8.40;100.00
20013;BME280;10167;42.852;23.042;2023-04-16T00:05:09;94378.69;;;8.38;100.00
20013;BME280;10167;42.852;23.042;2023-04-16T00:07:38;94364.78;;;8.43;100.00
20013;BME280;10167;42.852;23.042;2023-04-16T00:10:07;94365.13;;;8.46;99.25
20013;BME280;10167;42.852;23.042;2023-04-16T00:12:38;94366.25;;;8.50;98.67
20013;BME280;10167;42.852;23.042;2023-04-16T00:15:08;94364.88;;;8.48;98.78
20013;BME280;10167;42.852;23.042;2023-04-16T00:17:37;94362.16;;;8.43;99.71
20013;BME280;10167;42.852;23.042;2023-04-16T00:20:07;94360.22;;;8.38;99.73
20013;BME280;10167;42.852;23.042;2023-04-16T00:22:36;94372.72;;;8.31;99.99
20013;BME280;10167;42.852;23.042;2023-04-16T00:25:06;94373.91;;;8.23;100.00
20013;BME280;10167;42.852;23.042;2023-04-16T00:27:35;94378.00;;;8.31;100.00
20013;BME280;10167;42.852;23.042;2023-04-16T00:30:07;94379.19;;;8.23;100.00
20013;BME280;10167;42.852;23.042;2023-04-16T00:32:36;94376.28;;;8.25;100.00
20013;BME280;10167;42.852;23.042;2023-04-16T00:35:06;94378.00;;;8.31;100.00
20013;BME280;10167;42.852;23.042;2023-04-16T00:37:36;94371.00;;;8.25;100.00
20013;BME280;10167;42.852;23.042;2023-04-16T00:40:06;94372.53;;;8.21;100.00
20013;BME280;10167;42.852;23.042;2023-04-16T00:42:35;94373.34;;;8.21;100.00
20013;BME280;10167;42.852;23.042;2023-04-16T00:45:07;94366.53;;;8.25;100.00
20013;BME280;10167;42.852;23.042;2023-04-16T00:47:37;94375.16;;;8.21;100.00
20013;BME280;10167;42.852;23.042;2023-04-16T00:50:07;94369.56;;;8.17;100.00
20013;BME280;10167;42.852;23.042;2023-04-16T00:52:36;94363.34;;;8.23;100.00
20013;BME280;10167;42.852;23.042;2023-04-16T00:55:07;94364.50;;;8.16;100.00
20013;BME280;10167;42.852;23.042;2023-04-16T00:57:39;94362.09;;;8.14;100.00
20013;BME280;10167;42.852;23.042;2023-04-16T01:00:12;94362.31;;;8.13;100.00
20013;BME280;10167;42.852;23.042;2023-04-16T01:02:41;94361.09;;;8.03;100.00
20013;BME280;10167;42.852;23.042;2023-04-16T01:05:10;94356.78;;;7.97;100.00
20013;BME280;10167;42.852;23.042;2023-04-16T01:07:39;94353.59;;;7.84;100.00
20013;BME280;10167;42.852;23.042;2023-04-16T01:10:09;94354.41;;;7.73;100.00
20013;BME280;10167;42.852;23.042;2023-04-16T01:12:38;94343.69;;;7.51;100.00
20013;BME280;10167;42.852;23.042;2023-04-16T01:15:08;94343.81;;;7.33;100.00
20013;BME280;10167;42.852;23.042;2023-04-16T01:17:39;94346.31;;;7.16;100.00
20013;BME280;10167;42.852;23.042;2023-04-16T01:20:09;94341.28;;;7.03;100.00
20013;BME280;10167;42.852;23.042;2023-04-16T01:22:39;94336.69;;;6.86;100.00
20013;BME280;10167;42.852;23.042;2023-04-16T01:25:13;94334.38;;;6.78;100.00
20013;BME280;10167;42.852;23.042;2023-04-16T01:27:44;94327.41;;;6.72;100.00
20013;BME280;10167;42.852;23.042;2023-04-16T01:30:13;94328.66;;;6.70;100.00
20013;BME280;10167;42.852;23.042;2023-04-16T01:32:54;94327.97;;;6.74;100.00
20013;BME280;10167;42.852;23.042;2023-04-16T01:35:24;94321.78;;;6.80;100.00
20013;BME280;10167;42.852;23.042;2023-04-16T01:37:54;94326.84;;;6.82;100.00
20013;BME280;10167;42.852;23.042;2023-04-16T01:40:24;94333.47;;;6.84;100.00
20013;BME280;10167;42.852;23.042;2023-04-16T01:42:53;94334.06;;;6.86;100.00
20013;BME280;10167;42.852;23.042;2023-04-16T01:45:22;94330.41;;;6.87;100.00
20013;BME280;10167;42.852;23.042;2023-04-16T01:47:52;94329.47;;;6.82;100.00
20013;BME280;10167;42.852;23.042;2023-04-16T01:50:21;94331.28;;;6.81;100.00
20013;BME280;10167;42.852;23.042;2023-04-16T01:52:51;94323.84;;;6.78;100.00
20013;BME280;10167;42.852;23.042;2023-04-16T01:55:22;94331.88;;;6.83;100.00
20013;BME280;10167;42.852;23.042;2023-04-16T01:57:51;94318.50;;;6.85;100.00
20013;BME280;10167;42.852;23.042;2023-04-16T02:00:25;94323.53;;;6.86;100.00
20013;BME280;10167;42.852;23.042;2023-04-16T02:02:54;94322.03;;;6.90;100.00
20013;BME280;10167;42.852;23.042;2023-04-16T02:05:26;94317.13;;;6.94;100.00
20013;BME280;10167;42.852;23.042;2023-04-16T02:07:57;94317.00;;;7.01;100.00
20013;BME280;10167;42.852;23.042;2023-04-16T02:10:27;94310.47;;;7.03;100.00
20013;BME280;10167;42.852;23.042;2023-04-16T02:12:57;94323.66;;;7.03;100.00
20013;BME280;10167;42.852;23.042;2023-04-16T02:15:27;94326.63;;;6.95;100.00
20013;BME280;10167;42.852;23.042;2023-04-16T02:17:57;94322.03;;;6.90;100.00
20013;BME280;10167;42.852;23.042;2023-04-16T02:20:26;94318.13;;;6.81;100.00
20013;BME280;10167;42.852;23.042;2023-04-16T02:22:58;94318.59;;;6.78;100.00
20013;BME280;10167;42.852;23.042;2023-04-16T02:25:30;94314.34;;;6.77;100.00
20013;BME280;10167;42.852;23.042;2023-04-16T02:27:59;94316.50;;;6.69;100.00
20013;BME280;10167;42.852;23.042;2023-04-16T02:30:39;94316.88;;;6.72;100.00
20013;BME280;10167;42.852;23.042;2023-04-16T02:33:10;94310.00;;;6.71;100.00
20013;BME280;10167;42.852;23.042;2023-04-16T02:35:50;94308.97;;;6.72;100.00
20013;BME280;10167;42.852;23.042;2023-04-16T02:38:19;94309.88;;;6.78;100.00
20013;BME280;10167;42.852;23.042;2023-04-16T02:40:49;94307.75;;;6.86;100.00
20013;BME280;10167;42.852;23.042;2023-04-16T02:43:21;94316.53;;;6.92;100.00
20013;BME280;10167;42.852;23.042;2023-04-16T02:45:51;94306.03;;;7.04;100.00
20013;BME280;10167;42.852;23.042;2023-04-16T02:48:20;94307.84;;;7.15;100.00
20013;BME280;10167;42.852;23.042;2023-04-16T02:50:49;94309.00;;;7.19;100.00
20013;BME280;10167;42.852;23.042;2023-04-16T02:53:18;94304.31;;;7.21;100.00
20013;BME280;10167;42.852;23.042;2023-04-16T02:55:53;94312.31;;;7.26;100.00
20013;BME280;10167;42.852;23.042;2023-04-16T02:58:24;94304.19;;;7.27;100.00
20013;BME280;10167;42.852;23.042;2023-04-16T03:00:54;94302.22;;;7.35;100.00
20013;BME280;10167;42.852;23.042;2023-04-16T03:03:23;94302.72;;;7.32;100.00
20013;BME280;10167;42.852;23.042;2023-04-16T03:05:52;94313.47;;;7.30;100.00
20013;BME280;10167;42.852;23.042;2023-04-16T03:08:21;94312.88;;;7.28;100.00
20013;BME280;10167;42.852;23.042;2023-04-16T03:10:52;94309.22;;;7.29;100.00
20013;BME280;10167;42.852;23.042;2023-04-16T03:13:21;94316.09;;;7.30;100.00
20013;BME280;10167;42.852;23.042;2023-04-16T03:15:50;94319.53;;;7.19;100.00
20013;BME280;10167;42.852;23.042;2023-04-16T03:18:19;94318.38;;;7.15;100.00
20013;BME280;10167;42.852;23.042;2023-04-16T03:20:50;94310.38;;;7.10;100.00
20013;BME280;10167;42.852;23.042;2023-04-16T03:23:20;94315.41;;;7.11;100.00
20013;BME280;10167;42.852;23.042;2023-04-16T03:25:49;94321.94;;;7.09;100.00
20013;BME280;10167;42.852;23.042;2023-04-16T03:28:23;94323.44;;;7.16;100.00
20013;BME280;10167;42.852;23.042;2023-04-16T03:30:53;94317.34;;;7.16;100.00
20013;BME280;10167;42.852;23.042;2023-04-16T03:33:22;94318.59;;;7.25;100.00
20013;BME280;10167;42.852;23.042;2023-04-16T03:35:56;94317.59;;;7.26;100.00
20013;BME280;10167;42.852;23.042;2023-04-16T03:38:28;94318.72;;;7.30;100.00
20013;BME280;10167;42.852;23.042;2023-04-16T03:40:58;94330.06;;;7.31;100.00
20013;BME280;10167;42.852;23.042;2023-04-16T03:43:31;94329.16;;;7.25;100.00
20013;BME280;10167;42.852;23.042;2023-04-16T03:46:00;94329.50;;;7.40;100.00
20013;BME280;10167;42.852;23.042;2023-04-16T03:48:30;94325.59;;;7.43;100.00
20013;BME280;10167;42.852;23.042;2023-04-16T03:50:59;94329.47;;;7.52;100.00
20013;BME280;10167;42.852;23.042;2023-04-16T03:53:28;94335.41;;;7.59;100.00
20013;BME280;10167;42.852;23.042;2023-04-16T03:55:57;94325.22;;;7.62;100.00
20013;BME280;10167;42.852;23.042;2023-04-16T03:58:27;94325.56;;;7.66;100.00
20013;BME280;10167;42.852;23.042;2023-04-16T04:00:58;94324.19;;;7.63;100.00
20013;BME280;10167;42.852;23.042;2023-04-16T04:03:27;94329.91;;;7.60;100.00
20013;BME280;10167;42.852;23.042;2023-04-16T04:05:56;94326.25;;;7.61;100.00
20013;BME280;10167;42.852;23.042;2023-04-16T04:08:29;94326.63;;;7.53;100.00
20013;BME280;10167;42.852;23.042;2023-04-16T04:10:59;94330.34;;;7.69;100.00
20013;BME280;10167;42.852;23.042;2023-04-16T04:13:30;94329.53;;;7.69;100.00
20013;BME280;10167;42.852;23.042;2023-04-16T04:16:00;94337.38;;;7.63;100.00
20013;BME280;10167;42.852;23.042;2023-04-16T04:18:30;94330.25;;;7.64;100.00
20013;BME280;10167;42.852;23.042;2023-04-16T04:20:59;94337.47;;;7.57;100.00
20013;BME280;10167;42.852;23.042;2023-04-16T04:23:33;94335.53;;;7.52;100.00
20013;BME280;10167;42.852;23.042;2023-04-16T04:26:02;94348.81;;;7.57;100.00
20013;BME280;10167;42.852;23.042;2023-04-16T04:28:35;94349.97;;;7.61;100.00
20013;BME280;10167;42.852;23.042;2023-04-16T04:31:05;94350.75;;;7.62;100.00
20013;BME280;10167;42.852;23.042;2023-04-16T04:33:35;94352.94;;;7.65;100.00
20013;BME280;10167;42.852;23.042;2023-04-16T04:36:04;94360.25;;;7.75;100.00
20013;BME280;10167;42.852;23.042;2023-04-16T04:38:35;94356.91;;;7.79;100.00
20013;BME280;10167;42.852;23.042;2023-04-16T04:41:04;94360.34;;;7.80;100.00
20013;BME280;10167;42.852;23.042;2023-04-16T04:43:36;94361.25;;;7.97;100.00
20013;BME280;10167;42.852;23.042;2023-04-16T04:46:07;94366.06;;;8.00;100.00
20013;BME280;10167;42.852;23.042;2023-04-16T04:48:36;94366.94;;;8.06;100.00
20013;BME280;10167;42.852;23.042;2023-04-16T04:51:05;94363.38;;;8.12;100.00
20013;BME280;10167;42.852;23.042;2023-04-16T04:53:35;94364.94;;;8.24;100.00
20013;BME280;10167;42.852;23.042;2023-04-16T04:56:05;94363.66;;;8.27;100.00
20013;BME280;10167;42.852;23.042;2023-04-16T04:58:39;94369.28;;;8.30;100.00
20013;BME280;10167;42.852;23.042;2023-04-16T05:01:10;94371.50;;;8.33;100.00
20013;BME280;10167;42.852;23.042;2023-04-16T05:03:39;94365.25;;;8.40;100.00
20013;BME280;10167;42.852;23.042;2023-04-16T05:06:09;94367.50;;;8.48;100.00
20013;BME280;10167;42.852;23.042;2023-04-16T05:08:38;94366.56;;;8.54;100.00
20013;BME280;10167;42.852;23.042;2023-04-16T05:11:07;94367.16;;;8.56;100.00
20013;BME280;10167;42.852;23.042;2023-04-16T05:13:36;94363.38;;;8.52;100.00
20013;BME280;10167;42.852;23.042;2023-04-16T05:16:06;94361.94;;;8.61;100.00
20013;BME280;10167;42.852;23.042;2023-04-16T05:18:37;94365.38;;;8.61;100.00
20013;BME280;10167;42.852;23.042;2023-04-16T05:21:06;94364.34;;;8.62;100.00
20013;BME280;10167;42.852;23.042;2023-04-16T05:23:35;94371.22;;;8.63;100.00
20013;BME280;10167;42.852;23.042;2023-04-16T05:26:04;94367.63;;;8.69;100.00
20013;BME280;10167;42.852;23.042;2023-04-16T05:28:33;94371.50;;;8.79;100.00
20013;BME280;10167;42.852;23.042;2023-04-16T05:31:02;94370.63;;;8.90;100.00
20013;BME280;10167;42.852;23.042;2023-04-16T05:33:32;94367.25;;;8.94;100.00
20013;BME280;10167;42.852;23.042;2023-04-16T05:36:03;94366.31;;;9.00;100.00
20013;BME280;10167;42.852;23.042;2023-04-16T05:38:32;94363.38;;;9.14;100.00
20013;BME280;10167;42.852;23.042;2023-04-16T05:41:01;94358.72;;;9.21;100.00
20013;BME280;10167;42.852;23.042;2023-04-16T05:43:31;94363.75;;;9.39;100.00
20013;BME280;10167;42.852;23.042;2023-04-16T05:46:00;94367.66;;;9.53;100.00
20013;BME280;10167;42.852;23.042;2023-04-16T05:48:29;94371.25;;;9.64;100.00
20013;BME280;10167;42.852;23.042;2023-04-16T05:50:59;94367.44;;;9.76;100.00
20013;BME280;10167;42.852;23.042;2023-04-16T05:53:30;94378.47;;;9.90;100.00
20013;BME280;10167;42.852;23.042;2023-04-16T05:55:59;94369.38;;;10.03;100.00
20013;BME280;10167;42.852;23.042;2023-04-16T05:58:28;94369.75;;;10.11;100.00
20013;BME280;10167;42.852;23.042;2023-04-16T06:00:57;94366.69;;;10.19;100.00
20013;BME280;10167;42.852;23.042;2023-04-16T06:03:27;94365.22;;;10.29;100.00
20013;BME280;10167;42.852;23.042;2023-04-16T06:05:57;94365.63;;;10.42;100.00
20013;BME280;10167;42.852;23.042;2023-04-16T06:08:26;94363.72;;;10.60;100.00
20013;BME280;10167;42.852;23.042;2023-04-16T06:10:57;94357.25;;;10.77;100.00
20013;BME280;10167;42.852;23.042;2023-04-16T06:13:26;94353.19;;;10.97;100.00
20013;BME280;10167;42.852;23.042;2023-04-16T06:15:56;94343.53;;;11.12;97.14
20013;BME280;10167;42.852;23.042;2023-04-16T06:18:25;94350.59;;;11.34;98.00
20013;BME280;10167;42.852;23.042;2023-04-16T06:20:54;94347.69;;;11.35;93.70
20013;BME280;10167;42.852;23.042;2023-04-16T06:23:25;94355.94;;;11.44;91.28
20013;BME280;10167;42.852;23.042;2023-04-16T06:25:54;94354.22;;;11.59;93.93
20013;BME280;10167;42.852;23.042;2023-04-16T06:28:25;94355.81;;;11.60;88.45
20013;BME280;10167;42.852;23.042;2023-04-16T06:30:54;94354.13;;;11.86;90.57
20013;BME280;10167;42.852;23.042;2023-04-16T06:33:24;94351.13;;;12.25;87.83
20013;BME280;10167;42.852;23.042;2023-04-16T06:35:53;94341.66;;;12.59;89.21
20013;BME280;10167;42.852;23.042;2023-04-16T06:38:22;94341.72;;;12.95;91.70
20013;BME280;10167;42.852;23.042;2023-04-16T06:40:51;94340.16;;;13.34;87.85
20013;BME280;10167;42.852;23.042;2023-04-16T06:43:21;94339.88;;;13.61;91.01
20013;BME280;10167;42.852;23.042;2023-04-16T06:45:52;94348.41;;;13.53;94.35
20013;BME280;10167;42.852;23.042;2023-04-16T06:48:21;94341.66;;;13.91;93.00
20013;BME280;10167;42.852;23.042;2023-04-16T06:50:50;94349.13;;;13.99;91.85
20013;BME280;10167;42.852;23.042;2023-04-16T06:53:19;94345.69;;;13.84;90.41
20013;BME280;10167;42.852;23.042;2023-04-16T06:55:49;94348.09;;;13.70;93.29
20013;BME280;10167;42.852;23.042;2023-04-16T06:58:18;94349.28;;;14.23;91.34
20013;BME280;10167;42.852;23.042;2023-04-16T07:00:47;94349.28;;;14.23;87.75
20013;BME280;10167;42.852;23.042;2023-04-16T07:03:18;94348.47;;;14.23;84.70
20013;BME280;10167;42.852;23.042;2023-04-16T07:05:47;94351.41;;;14.31;84.13
20013;BME280;10167;42.852;23.042;2023-04-16T07:08:17;94356.19;;;14.39;84.01
20013;BME280;10167;42.852;23.042;2023-04-16T07:10:46;94355.59;;;14.52;82.66
20013;BME280;10167;42.852;23.042;2023-04-16T07:13:15;94355.66;;;14.27;84.15
20013;BME280;10167;42.852;23.042;2023-04-16T07:15:45;94350.81;;;14.34;84.04
20013;BME280;10167;42.852;23.042;2023-04-16T07:18:14;94353.78;;;14.43;81.11
20013;BME280;10167;42.852;23.042;2023-04-16T07:20:47;94351.19;;;14.77;80.13
20013;BME280;10167;42.852;23.042;2023-04-16T07:23:16;94353.53;;;14.83;79.62
20013;BME280;10167;42.852;23.042;2023-04-16T07:25:45;94348.19;;;14.88;80.52
20013;BME280;10167;42.852;23.042;2023-04-16T07:28:15;94354.53;;;14.98;77.45
20013;BME280;10167;42.852;23.042;2023-04-16T07:30:44;94346.47;;;15.03;74.80
20013;BME280;10167;42.852;23.042;2023-04-16T07:33:13;94344.75;;;15.22;74.46
20013;BME280;10167;42.852;23.042;2023-04-16T07:35:43;94350.31;;;15.25;73.10
20013;BME280;10167;42.852;23.042;2023-04-16T07:38:14;94345.59;;;15.12;74.82
20013;BME280;10167;42.852;23.042;2023-04-16T07:40:43;94340.78;;;15.19;75.13
20013;BME280;10167;42.852;23.042;2023-04-16T07:43:13;94331.91;;;15.24;74.91
20013;BME280;10167;42.852;23.042;2023-04-16T07:45:42;94339.25;;;15.42;74.16
20013;BME280;10167;42.852;23.042;2023-04-16T07:48:12;94335.53;;;15.43;77.24
20013;BME280;10167;42.852;23.042;2023-04-16T07:50:41;94338.50;;;15.37;73.72
20013;BME280;10167;42.852;23.042;2023-04-16T07:53:12;94345.06;;;15.49;74.23
20013;BME280;10167;42.852;23.042;2023-04-16T07:55:42;94347.94;;;15.58;74.94
20013;BME280;10167;42.852;23.042;2023-04-16T07:58:11;94342.63;;;15.82;71.41
20013;BME280;10167;42.852;23.042;2023-04-16T08:00:41;94344.50;;;16.10;72.66
20013;BME280;10167;42.852;23.042;2023-04-16T08:03:10;94343.34;;;16.16;69.87
20013;BME280;10167;42.852;23.042;2023-04-16T08:05:40;94344.00;;;16.51;69.00
20013;BME280;10167;42.852;23.042;2023-04-16T08:08:09;94345.50;;;16.62;70.09
20013;BME280;10167;42.852;23.042;2023-04-16T08:10:40;94339.59;;;17.02;66.54
20013;BME280;10167;42.852;23.042;2023-04-16T08:13:09;94343.06;;;17.22;61.69
20013;BME280;10167;42.852;23.042;2023-04-16T08:15:38;94338.41;;;17.27;60.83
20013;BME280;10167;42.852;23.042;2023-04-16T08:18:07;94336.78;;;17.45;59.04
20013;BME280;10167;42.852;23.042;2023-04-16T08:20:42;94331.44;;;17.13;59.59
20013;BME280;10167;42.852;23.042;2023-04-16T08:23:11;94334.22;;;17.21;59.81
20013;BME280;10167;42.852;23.042;2023-04-16T08:25:42;94318.91;;;17.59;59.38
20013;BME280;10167;42.852;23.042;2023-04-16T08:28:11;94326.66;;;17.42;59.34
20013;BME280;10167;42.852;23.042;2023-04-16T08:30:40;94322.34;;;17.78;59.89
20013;BME280;10167;42.852;23.042;2023-04-16T08:33:09;94319.53;;;17.51;59.89
20013;BME280;10167;42.852;23.042;2023-04-16T08:35:40;94320.16;;;17.48;59.06
20013;BME280;10167;42.852;23.042;2023-04-16T08:38:09;94320.16;;;17.81;61.03
20013;BME280;10167;42.852;23.042;2023-04-16T08:40:42;94312.91;;;17.81;56.21
20013;BME280;10167;42.852;23.042;2023-04-16T08:43:12;94310.84;;;17.92;58.39
20013;BME280;10167;42.852;23.042;2023-04-16T08:45:43;94319.84;;;17.96;56.95
20013;BME280;10167;42.852;23.042;2023-04-16T08:48:14;94313.31;;;17.88;54.89
20013;BME280;10167;42.852;23.042;2023-04-16T08:50:44;94307.19;;;17.23;56.88
20013;BME280;10167;42.852;23.042;2023-04-16T08:53:17;94305.94;;;17.34;58.79
20013;BME280;10167;42.852;23.042;2023-04-16T08:55:51;94307.69;;;17.06;58.89
20013;BME280;10167;42.852;23.042;2023-04-16T08:58:21;94298.47;;;16.80;60.02
20013;BME280;10167;42.852;23.042;2023-04-16T09:00:51;94303.38;;;16.73;60.91
20013;BME280;10167;42.852;23.042;2023-04-16T09:03:21;94303.88;;;16.75;61.27
20013;BME280;10167;42.852;23.042;2023-04-16T09:05:51;94296.53;;;16.66;61.22
20013;BME280;10167;42.852;23.042;2023-04-16T09:08:22;94299.78;;;16.63;59.92
20013;BME280;10167;42.852;23.042;2023-04-16T09:10:54;94302.41;;;16.45;61.88
20013;BME280;10167;42.852;23.042;2023-04-16T09:13:24;94302.47;;;16.40;62.98
20013;BME280;10167;42.852;23.042;2023-04-16T09:15:54;94304.69;;;16.32;63.96
20013;BME280;10167;42.852;23.042;2023-04-16T09:18:24;94294.84;;;16.28;63.84
20013;BME280;10167;42.852;23.042;2023-04-16T09:20:55;94297.91;;;15.97;66.15
20013;BME280;10167;42.852;23.042;2023-04-16T09:23:24;94299.50;;;15.98;67.12
20013;BME280;10167;42.852;23.042;2023-04-16T09:25:55;94303.47;;;16.01;67.83
20013;BME280;10167;42.852;23.042;2023-04-16T09:28:41;94299.66;;;16.07;67.94
20013;BME280;10167;42.852;23.042;2023-04-16T09:31:13;94302.16;;;16.22;64.49
20013;BME280;10167;42.852;23.042;2023-04-16T09:33:43;94305.13;;;16.40;64.08
20013;BME280;10167;42.852;23.042;2023-04-16T09:36:12;94298.56;;;16.51;64.64
20013;BME280;10167;42.852;23.042;2023-04-16T09:38:45;94291.88;;;16.53;66.20
20013;BME280;10167;42.852;23.042;2023-04-16T09:41:16;94302.94;;;16.65;62.09
20013;BME280;10167;42.852;23.042;2023-04-16T09:43:53;94296.31;;;16.63;62.06
20013;BME280;10167;42.852;23.042;2023-04-16T09:46:24;94300.13;;;16.76;62.14
20013;BME280;10167;42.852;23.042;2023-04-16T09:48:57;94299.53;;;16.97;61.85
20013;BME280;10167;42.852;23.042;2023-04-16T09:51:36;94299.38;;;17.08;59.63
20013;BME280;10167;42.852;23.042;2023-04-16T09:54:05;94300.78;;;16.67;60.74
20013;BME280;10167;42.852;23.042;2023-04-16T09:56:40;94299.56;;;16.79;59.43
20013;BME280;10167;42.852;23.042;2023-04-16T09:59:16;94296.75;;;16.89;59.23
20013;BME280;10167;42.852;23.042;2023-04-16T10:01:45;94295.72;;;16.85;59.15
20013;BME280;10167;42.852;23.042;2023-04-16T10:04:16;94296.03;;;17.16;57.19
20013;BME280;10167;42.852;23.042;2023-04-16T10:07:01;94300.66;;;17.29;58.54
20013;BME280;10167;42.852;23.042;2023-04-16T10:09:32;94300.91;;;17.46;57.64
20013;BME280;10167;42.852;23.042;2023-04-16T10:12:07;94294.75;;;17.78;56.93
20013;BME280;10167;42.852;23.042;2023-04-16T10:14:36;94292.59;;;18.21;54.84
20013;BME280;10167;42.852;23.042;2023-04-16T10:17:05;94291.13;;;18.78;53.53
20013;BME280;10167;42.852;23.042;2023-04-16T10:19:35;94287.38;;;19.02;51.72
20013;BME280;10167;42.852;23.042;2023-04-16T10:22:05;94272.31;;;19.37;50.49
20013;BME280;10167;42.852;23.042;2023-04-16T10:24:34;94283.81;;;19.82;48.51
20013;BME280;10167;42.852;23.042;2023-04-16T10:27:11;94273.63;;;20.41;49.51
20013;BME280;10167;42.852;23.042;2023-04-16T10:29:40;94273.69;;;20.92;44.81
20013;BME280;10167;42.852;23.042;2023-04-16T10:32:09;94271.78;;;20.84;43.93
20013;BME280;10167;42.852;23.042;2023-04-16T10:34:39;94268.59;;;20.56;44.51
20013;BME280;10167;42.852;23.042;2023-04-16T10:37:08;94260.59;;;20.25;44.48
20013;BME280;10167;42.852;23.042;2023-04-16T10:39:38;94258.03;;;20.20;46.93
20013;BME280;10167;42.852;23.042;2023-04-16T10:42:09;94254.66;;;19.98;44.93
20013;BME280;10167;42.852;23.042;2023-04-16T10:44:40;94258.72;;;20.35;43.95
20013;BME280;10167;42.852;23.042;2023-04-16T10:47:12;94255.31;;;20.12;44.68
20013;BME280;10167;42.852;23.042;2023-04-16T10:49:41;94253.31;;;20.26;43.63
20013;BME280;10167;42.852;23.042;2023-04-16T10:52:12;94256.84;;;20.44;42.65
20013;BME280;10167;42.852;23.042;2023-04-16T10:54:45;94254.81;;;20.66;43.63
20013;BME280;10167;42.852;23.042;2023-04-16T10:57:17;94247.72;;;21.05;43.69
20013;BME280;10167;42.852;23.042;2023-04-16T10:59:49;94246.13;;;21.38;42.48
20013;BME280;10167;42.852;23.042;2023-04-16T11:02:18;94242.91;;;21.62;40.44
20013;BME280;10167;42.852;23.042;2023-04-16T11:04:48;94243.78;;;21.84;41.26
20013;BME280;10167;42.852;23.042;2023-04-16T11:07:18;94234.19;;;22.12;39.83
20013;BME280;10167;42.852;23.042;2023-04-16T11:09:53;94227.06;;;21.61;39.87
20013;BME280;10167;42.852;23.042;2023-04-16T11:12:24;94234.34;;;21.60;40.48
20013;BME280;10167;42.852;23.042;2023-04-16T11:14:58;94233.44;;;21.94;40.42
20013;BME280;10167;42.852;23.042;2023-04-16T11:17:37;94233.03;;;22.22;39.55
20013;BME280;10167;42.852;23.042;2023-04-16T11:20:08;94232.53;;;22.49;37.42
20013;BME280;10167;42.852;23.042;2023-04-16T11:22:50;94229.75;;;22.37;38.65
20013;BME280;10167;42.852;23.042;2023-04-16T11:25:24;94230.06;;;21.59;39.66
20013;BME280;10167;42.852;23.042;2023-04-16T11:27:54;94220.69;;;21.74;39.34
20013;BME280;10167;42.852;23.042;2023-04-16T11:30:31;94227.53;;;21.63;38.54
20013;BME280;10167;42.852;23.042;2023-04-16T11:33:02;94216.38;;;20.92;41.17
20013;BME280;10167;42.852;23.042;2023-04-16T11:35:31;94208.13;;;20.88;40.09
20013;BME280;10167;42.852;23.042;2023-04-16T11:38:00;94210.53;;;20.64;41.38
20013;BME280;10167;42.852;23.042;2023-04-16T11:40:30;94212.66;;;20.19;42.37
20013;BME280;10167;42.852;23.042;2023-04-16T11:43:01;94204.72;;;20.14;42.93
20013;BME280;10167;42.852;23.042;2023-04-16T11:45:32;94201.72;;;20.07;42.66
20013;BME280;10167;42.852;23.042;2023-04-16T11:48:01;94201.03;;;19.84;42.27
20013;BME280;10167;42.852;23.042;2023-04-16T11:50:30;94197.91;;;19.51;42.90
20013;BME280;10167;42.852;23.042;2023-04-16T11:53:03;94189.84;;;19.29;43.62
20013;BME280;10167;42.852;23.042;2023-04-16T11:55:42;94199.00;;;19.28;43.34
20013;BME280;10167;42.852;23.042;2023-04-16T11:58:12;94188.38;;;19.22;43.76
20013;BME280;10167;42.852;23.042;2023-04-16T12:00:45;94189.06;;;19.28;44.77
20013;BME280;10167;42.852;23.042;2023-04-16T12:03:15;94186.44;;;19.76;43.43
20013;BME280;10167;42.852;23.042;2023-04-16T12:05:45;94189.28;;;20.28;42.92
20013;BME280;10167;42.852;23.042;2023-04-16T12:08:27;94189.31;;;20.80;40.44
20013;BME280;10167;42.852;23.042;2023-04-16T12:10:57;94187.03;;;21.42;39.09
20013;BME280;10167;42.852;23.042;2023-04-16T12:13:27;94192.13;;;21.82;38.88
20013;BME280;10167;42.852;23.042;2023-04-16T12:15:57;94183.50;;;22.47;36.15
20013;BME280;10167;42.852;23.042;2023-04-16T12:18:28;94188.09;;;23.30;36.23
20013;BME280;10167;42.852;23.042;2023-04-16T12:20:57;94180.78;;;23.75;35.09
20013;BME280;10167;42.852;23.042;2023-04-16T12:23:31;94176.72;;;24.42;34.71
20013;BME280;10167;42.852;23.042;2023-04-16T12:26:05;94170.13;;;24.68;34.06
20013;BME280;10167;42.852;23.042;2023-04-16T12:28:37;94166.94;;;25.61;32.28
20013;BME280;10167;42.852;23.042;2023-04-16T12:31:08;94169.97;;;25.60;31.04
20013;BME280;10167;42.852;23.042;2023-04-16T12:33:38;94166.31;;;24.96;32.13
20013;BME280;10167;42.852;23.042;2023-04-16T12:36:17;94162.50;;;24.85;31.91
20013;BME280;10167;42.852;23.042;2023-04-16T12:38:46;94169.16;;;24.48;32.51
20013;BME280;10167;42.852;23.042;2023-04-16T12:41:15;94157.72;;;25.07;32.07
20013;BME280;10167;42.852;23.042;2023-04-16T12:43:44;94151.63;;;24.70;31.71
20013;BME280;10167;42.852;23.042;2023-04-16T12:46:15;94151.28;;;25.71;32.25
20013;BME280;10167;42.852;23.042;2023-04-16T12:48:44;94156.84;;;26.09;30.69
20013;BME280;10167;42.852;23.042;2023-04-16T12:51:14;94147.16;;;25.92;31.22
20013;BME280;10167;42.852;23.042;2023-04-16T12:53:43;94153.56;;;25.68;31.49
20013;BME280;10167;42.852;23.042;2023-04-16T12:56:12;94166.00;;;24.21;31.46
20013;BME280;10167;42.852;23.042;2023-04-16T12:58:42;94144.31;;;23.48;32.92
20013;BME280;10167;42.852;23.042;2023-04-16T13:01:11;94139.28;;;22.60;34.87
20013;BME280;10167;42.852;23.042;2023-04-16T13:03:42;94136.66;;;22.10;35.32
20013;BME280;10167;42.852;23.042;2023-04-16T13:06:13;94142.59;;;21.95;36.33